In Rescue
 
Open Full Screen Window  High Contrast Mode
Wind Gusting 16 knots
11
May 13, 2021 10:36 AM CDT
Weather Information
Wind Direction
  230 °
Wind Speed
  11 kt (13 mph)
Wind Gust
  16 kt (18 mph)
Altimeter
30.24 in
Visibility
10 SM
Temperature
18° C
64° F
Dewpoint
00° C
32° F
Humidity
30%
1hr Rain Fall
00.00 in.
24hr Rain Fall
00.00 in.
Sky Condition
Clear
VFR

METAR KBJI 131536Z AUTO 23011G16KT 10SM CLR 18/00 A3024 RMK AO2 T01821001

FAA Disclaimer: The data displayed is for advisory purposes only and is not to be used for flight planning or operations.